createdAt,value
2022-12-28T00:02:13.226Z,82.59
2022-12-28T00:04:39.874Z,81.66
2022-12-28T00:07:06.515Z,81.18
2022-12-28T00:09:33.135Z,81.48
2022-12-28T00:11:59.894Z,81.44
2022-12-28T00:14:26.528Z,82.18
2022-12-28T00:16:53.281Z,82.73
2022-12-28T00:19:19.998Z,81.90
2022-12-28T00:21:47.197Z,82.20
2022-12-28T00:24:23.151Z,82.79
2022-12-28T00:26:50.100Z,81.99
2022-12-28T00:29:17.753Z,82.03
2022-12-28T00:31:45.941Z,82.86
2022-12-28T00:34:13.373Z,80.85
2022-12-28T00:37:09.757Z,81.42
2022-12-28T00:39:29.307Z,82.40
2022-12-28T00:41:55.940Z,81.86
2022-12-28T00:44:22.543Z,83.02
2022-12-28T00:46:49.196Z,82.79
2022-12-28T00:49:15.824Z,84.10
2022-12-28T00:51:42.646Z,84.48
2022-12-28T00:54:09.641Z,83.83
2022-12-28T00:56:36.372Z,83.50
2022-12-28T00:59:03.275Z,83.49
2022-12-28T01:01:30.216Z,82.30
2022-12-28T01:03:58.784Z,82.76
2022-12-28T01:06:26.610Z,83.00
2022-12-28T01:08:53.375Z,83.25
2022-12-28T01:11:25.716Z,82.09
2022-12-28T01:13:55.682Z,81.48
2022-12-28T01:16:32.712Z,82.13
2022-12-28T01:19:01.543Z,83.18
2022-12-28T01:21:31.092Z,81.44
2022-12-28T01:24:00.567Z,83.12
2022-12-28T01:26:28.167Z,82.67
2022-12-28T01:28:56.200Z,83.39
2022-12-28T01:31:23.218Z,83.94
2022-12-28T01:33:51.304Z,83.22
2022-12-28T01:36:21.330Z,82.99
2022-12-28T01:38:49.065Z,82.56
2022-12-28T01:41:18.148Z,83.18
2022-12-28T01:44:07.793Z,82.48
2022-12-28T01:46:57.782Z,83.66
2022-12-28T01:49:52.862Z,83.11
2022-12-28T01:52:53.462Z,81.94
2022-12-28T01:55:27.273Z,81.71
2022-12-28T01:58:00.993Z,82.44
2022-12-28T02:00:28.211Z,82.17
2022-12-28T02:02:58.741Z,83.23
2022-12-28T02:05:29.571Z,82.04
2022-12-28T02:08:08.004Z,82.47
2022-12-28T02:10:41.209Z,83.11
2022-12-28T02:13:15.711Z,83.82
2022-12-28T02:15:42.965Z,82.96
2022-12-28T02:18:10.773Z,83.10
2022-12-28T02:20:49.587Z,82.33
2022-12-28T02:23:38.398Z,83.84
2022-12-28T02:26:05.014Z,83.05
2022-12-28T02:28:43.576Z,84.00
2022-12-28T02:31:20.944Z,85.08
2022-12-28T02:33:57.439Z,83.69
2022-12-28T02:36:30.542Z,82.83
2022-12-28T02:39:05.695Z,83.93
2022-12-28T02:41:34.329Z,83.42
2022-12-28T02:44:01.503Z,82.89
2022-12-28T02:46:48.479Z,83.25
2022-12-28T02:49:41.940Z,83.59
2022-12-28T02:52:11.444Z,83.26
2022-12-28T02:55:08.860Z,83.67
2022-12-28T02:57:54.649Z,84.15
2022-12-28T03:00:25.935Z,83.10
2022-12-28T03:03:43.992Z,84.05
2022-12-28T03:07:18.159Z,84.11
2022-12-28T03:10:07.089Z,84.42
2022-12-28T03:12:42.987Z,83.95
2022-12-28T03:15:15.346Z,82.81
2022-12-28T03:18:02.846Z,83.48
2022-12-28T03:20:50.802Z,84.16
2022-12-28T03:23:40.267Z,83.98
2022-12-28T03:26:29.193Z,83.74
2022-12-28T03:29:18.273Z,83.84
2022-12-28T03:31:45.257Z,82.62
2022-12-28T03:34:14.884Z,83.20
2022-12-28T03:37:02.612Z,84.07
2022-12-28T03:39:36.501Z,82.54
2022-12-28T03:42:33.842Z,82.82
2022-12-28T03:45:09.583Z,82.17
2022-12-28T03:47:38.730Z,83.55
2022-12-28T03:50:06.001Z,82.61
2022-12-28T03:52:33.577Z,83.29
2022-12-28T03:55:03.631Z,83.76
2022-12-28T03:57:30.507Z,83.06
2022-12-28T03:59:57.533Z,82.57
2022-12-28T04:02:24.252Z,83.17
2022-12-28T04:04:51.537Z,82.84
2022-12-28T04:07:18.245Z,82.89
2022-12-28T04:09:44.964Z,82.88
2022-12-28T04:12:12.941Z,82.20
2022-12-28T04:15:09.455Z,82.19
2022-12-28T04:17:36.150Z,82.60
2022-12-28T04:20:03.850Z,82.28
2022-12-28T04:22:31.036Z,81.40
2022-12-28T04:24:58.915Z,81.01
2022-12-28T04:27:25.668Z,81.17
2022-12-28T04:29:55.910Z,82.07
2022-12-28T04:32:24.813Z,82.63
2022-12-28T04:34:51.410Z,82.31
2022-12-28T04:37:18.867Z,81.29
2022-12-28T04:39:55.298Z,81.62
2022-12-28T04:42:27.259Z,80.61
2022-12-28T04:44:53.923Z,80.25
2022-12-28T04:47:20.871Z,81.24
2022-12-28T04:49:47.607Z,80.68
2022-12-28T04:52:14.310Z,81.11
2022-12-28T04:54:40.964Z,80.58
2022-12-28T04:57:07.601Z,80.38
2022-12-28T04:59:34.272Z,81.13
2022-12-28T05:02:01.197Z,81.39
2022-12-28T05:04:28.041Z,81.37
2022-12-28T05:06:54.629Z,81.36
2022-12-28T05:09:21.448Z,81.90
2022-12-28T05:11:48.346Z,80.61
2022-12-28T05:14:15.078Z,80.73
2022-12-28T05:16:42.270Z,80.99
2022-12-28T05:19:09.061Z,81.75
2022-12-28T05:21:35.639Z,80.99
2022-12-28T05:24:02.270Z,82.12
2022-12-28T05:26:29.688Z,81.36
2022-12-28T05:28:58.432Z,80.52
2022-12-28T05:31:25.211Z,81.65
2022-12-28T05:33:52.631Z,80.51
2022-12-28T05:36:24.556Z,81.55
2022-12-28T05:38:52.857Z,81.24
2022-12-28T05:41:21.984Z,81.48
2022-12-28T05:43:49.259Z,80.76
2022-12-28T05:46:19.416Z,80.86
2022-12-28T05:48:47.017Z,79.88
2022-12-28T05:51:18.070Z,79.78
2022-12-28T05:53:45.238Z,79.71
2022-12-28T05:56:14.971Z,80.61
2022-12-28T05:58:43.059Z,79.74
2022-12-28T06:01:15.934Z,80.06
2022-12-28T06:03:43.223Z,78.98
2022-12-28T06:06:16.057Z,79.72
2022-12-28T06:08:44.690Z,79.85
2022-12-28T06:11:14.304Z,79.90
2022-12-28T06:13:41.338Z,79.97
2022-12-28T06:16:11.851Z,80.49
2022-12-28T06:18:38.565Z,80.74
2022-12-28T06:21:19.728Z,80.26
2022-12-28T06:23:47.087Z,80.09
2022-12-28T06:26:16.687Z,80.55
2022-12-28T06:28:43.772Z,79.98
2022-12-28T06:31:19.401Z,79.36
2022-12-28T06:33:46.784Z,80.90
2022-12-28T06:36:20.588Z,80.12
2022-12-28T06:38:52.147Z,79.13
2022-12-28T06:41:21.388Z,78.32
2022-12-28T06:43:48.976Z,79.37
2022-12-28T06:46:17.303Z,78.93
2022-12-28T06:48:44.573Z,79.58
2022-12-28T06:51:19.147Z,80.53
2022-12-28T06:53:46.954Z,80.03
2022-12-28T06:56:36.132Z,80.22
2022-12-28T06:59:04.334Z,79.27
2022-12-28T07:01:34.929Z,80.28
2022-12-28T07:04:03.235Z,80.02
2022-12-28T07:06:33.699Z,80.74
2022-12-28T07:09:02.528Z,79.44
2022-12-28T07:11:30.399Z,79.90
2022-12-28T07:13:57.447Z,79.77
2022-12-28T07:16:26.349Z,79.06
2022-12-28T07:18:53.488Z,78.04
2022-12-28T07:21:26.724Z,78.98
2022-12-28T07:23:55.191Z,79.12
2022-12-28T07:26:30.297Z,78.12
2022-12-28T07:28:58.929Z,78.40
2022-12-28T07:31:44.151Z,80.13
2022-12-28T07:34:15.002Z,79.40
2022-12-28T07:36:42.203Z,77.95
2022-12-28T07:39:09.029Z,78.91
2022-12-28T07:41:38.455Z,78.47
2022-12-28T07:44:06.667Z,79.12
2022-12-28T07:46:35.933Z,78.17
2022-12-28T07:49:03.544Z,78.64
2022-12-28T07:51:33.444Z,78.85
2022-12-28T07:54:00.776Z,77.59
2022-12-28T07:56:29.018Z,79.15
2022-12-28T07:59:01.203Z,78.82
2022-12-28T08:01:31.770Z,76.83
2022-12-28T08:04:01.412Z,77.67
2022-12-28T08:06:29.976Z,78.45
2022-12-28T08:08:59.831Z,78.29
2022-12-28T08:11:29.738Z,77.25
2022-12-28T08:13:57.309Z,78.43
2022-12-28T08:16:26.774Z,78.81
2022-12-28T08:18:54.833Z,78.35
2022-12-28T08:21:28.905Z,78.43
2022-12-28T08:23:56.243Z,77.60
2022-12-28T08:26:26.122Z,77.56
2022-12-28T08:28:56.142Z,78.17
2022-12-28T08:31:26.057Z,77.87
2022-12-28T08:33:54.134Z,78.01
2022-12-28T08:36:21.751Z,77.51
2022-12-28T08:38:48.904Z,77.26
2022-12-28T08:41:21.137Z,77.11
2022-12-28T08:43:49.231Z,76.46
2022-12-28T08:46:19.586Z,77.04
2022-12-28T08:48:47.830Z,76.52
2022-12-28T08:51:21.104Z,76.00
2022-12-28T08:53:48.521Z,77.58
2022-12-28T08:56:17.943Z,76.85
2022-12-28T08:58:46.054Z,76.24
2022-12-28T09:01:17.215Z,74.95
2022-12-28T09:03:46.199Z,74.88
2022-12-28T09:06:19.125Z,74.53
2022-12-28T09:09:04.824Z,75.29
2022-12-28T09:11:31.852Z,75.76
2022-12-28T09:13:58.509Z,74.20
2022-12-28T09:16:27.657Z,73.52
2022-12-28T09:18:56.360Z,72.95
2022-12-28T09:21:26.066Z,71.82
2022-12-28T09:23:52.770Z,71.92
2022-12-28T09:26:22.245Z,71.25
2022-12-28T09:28:57.195Z,70.98
2022-12-28T09:31:26.112Z,71.61
2022-12-28T09:36:47.095Z,70.26
2022-12-28T09:39:17.418Z,70.36
2022-12-28T09:41:48.599Z,70.98
2022-12-28T09:44:38.527Z,70.34
2022-12-28T09:47:08.182Z,70.14
2022-12-28T09:49:59.598Z,70.35
2022-12-28T09:52:33.816Z,70.01
2022-12-28T09:55:10.444Z,70.48
2022-12-28T09:57:42.035Z,69.61
2022-12-28T10:00:16.998Z,69.60
2022-12-28T10:02:48.015Z,70.16
2022-12-28T10:05:15.236Z,69.66
2022-12-28T10:07:41.959Z,69.91
2022-12-28T10:10:16.756Z,69.86
2022-12-28T10:12:44.186Z,70.33
2022-12-28T10:15:16.289Z,71.28
2022-12-28T10:17:43.894Z,71.34
2022-12-28T10:20:19.645Z,70.28
2022-12-28T10:22:51.367Z,70.62
2022-12-28T10:25:22.299Z,69.74
2022-12-28T10:27:49.754Z,69.64
2022-12-28T10:30:18.420Z,69.66
2022-12-28T10:33:03.199Z,69.59
2022-12-28T10:35:49.457Z,69.18
2022-12-28T10:38:20.830Z,67.87
2022-12-28T10:41:01.170Z,67.89
2022-12-28T10:43:30.557Z,69.36
2022-12-28T10:45:59.030Z,68.47
2022-12-28T10:48:30.935Z,68.18
2022-12-28T10:51:02.098Z,66.86
2022-12-28T10:53:33.472Z,68.41
2022-12-28T10:56:02.653Z,68.42
2022-12-28T10:58:31.146Z,68.99
2022-12-28T11:01:02.299Z,69.30
2022-12-28T11:03:35.492Z,71.34
2022-12-28T11:06:18.865Z,69.67
2022-12-28T11:09:14.805Z,68.44
2022-12-28T11:11:43.408Z,68.60
2022-12-28T11:14:31.831Z,69.19
2022-12-28T11:17:14.186Z,69.92
2022-12-28T11:19:40.969Z,68.75
2022-12-28T11:22:11.603Z,68.04
2022-12-28T11:24:40.531Z,69.50
2022-12-28T11:27:13.386Z,68.89
2022-12-28T11:29:44.560Z,68.75
2022-12-28T11:32:25.370Z,69.15
2022-12-28T11:34:54.515Z,70.41
2022-12-28T11:37:21.337Z,70.47
2022-12-28T11:39:49.323Z,69.86
2022-12-28T11:42:39.424Z,70.00
2022-12-28T11:45:15.890Z,69.07
2022-12-28T11:47:43.070Z,69.41
2022-12-28T11:50:52.046Z,69.52
2022-12-28T11:53:44.798Z,69.95
2022-12-28T11:56:19.292Z,70.40
2022-12-28T11:59:01.626Z,70.13
2022-12-28T12:01:29.273Z,70.35
2022-12-28T12:03:59.024Z,69.97
2022-12-28T12:06:44.038Z,70.25
2022-12-28T12:09:25.817Z,69.75
2022-12-28T12:11:55.168Z,70.00
2022-12-28T12:14:44.509Z,69.25
2022-12-28T12:17:22.123Z,69.12
2022-12-28T12:19:54.270Z,69.26
2022-12-28T12:22:23.560Z,69.22
2022-12-28T12:24:57.802Z,68.39
2022-12-28T12:27:33.155Z,68.40
2022-12-28T12:30:06.831Z,68.26
2022-12-28T12:32:58.362Z,68.26
2022-12-28T12:35:28.260Z,69.15
2022-12-28T12:38:03.837Z,69.01
2022-12-28T12:40:52.092Z,68.93
2022-12-28T12:43:29.254Z,69.07
2022-12-28T12:46:14.517Z,68.34
2022-12-28T12:49:02.804Z,68.87
2022-12-28T12:51:40.597Z,68.98
2022-12-28T12:54:26.974Z,68.39
2022-12-28T12:57:04.700Z,68.59
2022-12-28T13:00:03.677Z,68.72
2022-12-28T13:02:50.996Z,68.47
2022-12-28T13:05:22.188Z,67.92
2022-12-28T13:07:50.326Z,67.75
2022-12-28T13:10:24.838Z,67.46
2022-12-28T13:12:55.736Z,66.93
2022-12-28T13:15:22.704Z,67.14
2022-12-28T13:18:44.020Z,66.69
2022-12-28T13:21:10.538Z,66.45
2022-12-28T13:23:44.512Z,66.33
2022-12-28T13:26:13.941Z,66.54
2022-12-28T13:28:51.939Z,65.76
2022-12-28T13:31:22.614Z,66.44
2022-12-28T13:33:57.309Z,66.27
2022-12-28T13:36:24.039Z,66.70
2022-12-28T13:39:18.575Z,67.51
2022-12-28T13:41:51.943Z,67.43
2022-12-28T13:44:26.097Z,67.06
2022-12-28T13:47:01.742Z,68.51
2022-12-28T13:49:34.353Z,68.18
2022-12-28T13:52:01.857Z,68.76
2022-12-28T13:54:28.605Z,67.45
2022-12-28T13:57:20.600Z,67.73
2022-12-28T13:59:46.195Z,67.63
2022-12-28T14:02:18.824Z,68.16
2022-12-28T14:04:53.047Z,68.61
2022-12-28T14:07:24.197Z,67.58
2022-12-28T14:09:52.946Z,66.72
2022-12-28T14:12:20.757Z,67.43
2022-12-28T14:14:48.453Z,66.88
2022-12-28T14:17:15.639Z,67.46
2022-12-28T14:19:43.179Z,66.68
2022-12-28T14:22:31.114Z,68.75
2022-12-28T14:24:59.677Z,66.57
2022-12-28T14:27:26.625Z,67.57
2022-12-28T14:29:55.134Z,67.73
2022-12-28T14:32:22.072Z,66.82
2022-12-28T14:37:40.299Z,66.12
2022-12-28T14:40:18.863Z,66.01
2022-12-28T14:42:49.803Z,67.82
2022-12-28T14:45:24.153Z,67.26
2022-12-28T14:47:55.525Z,66.96
2022-12-28T14:50:28.324Z,66.42
2022-12-28T14:53:13.661Z,67.65
2022-12-28T14:56:14.685Z,65.90
2022-12-28T14:58:58.544Z,67.84
2022-12-28T15:00:16.044Z,67.62
2022-12-28T15:01:40.244Z,67.66
2022-12-28T15:04:07.021Z,68.24
2022-12-28T15:06:33.711Z,68.57
2022-12-28T15:09:01.576Z,67.60
2022-12-28T15:11:29.518Z,67.59
2022-12-28T15:13:57.334Z,68.29
2022-12-28T15:16:24.782Z,68.52
2022-12-28T15:18:52.832Z,68.58
2022-12-28T15:21:21.702Z,66.42
2022-12-28T15:23:55.527Z,68.03
2022-12-28T15:26:23.864Z,68.48
2022-12-28T15:28:51.148Z,69.31
2022-12-28T15:31:19.864Z,69.58
2022-12-28T15:33:47.413Z,68.93
2022-12-28T15:36:18.114Z,68.70
2022-12-28T15:38:49.608Z,68.91
2022-12-28T15:41:36.089Z,67.58
2022-12-28T15:44:04.045Z,68.28
2022-12-28T15:46:30.812Z,69.06
2022-12-28T15:48:57.679Z,68.58
2022-12-28T15:51:24.538Z,69.44
2022-12-28T15:53:51.582Z,69.40
2022-12-28T15:56:30.378Z,69.69
2022-12-28T15:58:59.190Z,69.75
2022-12-28T16:01:28.165Z,69.96
2022-12-28T16:03:56.760Z,69.11
2022-12-28T16:06:26.141Z,69.03
2022-12-28T16:08:54.237Z,67.51
2022-12-28T16:11:21.937Z,67.78
2022-12-28T16:14:04.106Z,67.90
2022-12-28T16:16:35.936Z,68.39
2022-12-28T16:19:03.462Z,68.05
2022-12-28T16:21:31.006Z,67.43
2022-12-28T16:23:59.689Z,67.82
2022-12-28T16:26:26.878Z,67.53
2022-12-28T16:28:53.900Z,68.32
2022-12-28T16:31:26.230Z,69.27
2022-12-28T16:33:54.771Z,67.66
2022-12-28T16:36:22.375Z,69.28
2022-12-28T16:38:49.365Z,68.00
2022-12-28T16:41:16.395Z,68.29
2022-12-28T16:43:43.080Z,68.44
2022-12-28T16:46:10.050Z,68.92
2022-12-28T16:48:37.911Z,68.83
2022-12-28T16:51:04.768Z,69.33
2022-12-28T16:53:33.398Z,69.28
2022-12-28T16:56:01.330Z,70.06
2022-12-28T16:58:30.100Z,69.12
2022-12-28T17:00:58.087Z,68.74
2022-12-28T17:03:25.486Z,69.17
2022-12-28T17:05:53.442Z,69.58
2022-12-28T17:08:20.183Z,69.19
2022-12-28T17:10:46.876Z,69.64
2022-12-28T17:13:13.479Z,69.09
2022-12-28T17:15:40.955Z,69.56
2022-12-28T17:18:07.994Z,69.36
2022-12-28T17:20:38.563Z,69.63
2022-12-28T17:23:06.212Z,68.87
2022-12-28T17:25:34.102Z,69.41
2022-12-28T17:28:01.222Z,69.15
2022-12-28T17:30:28.534Z,69.45
2022-12-28T17:32:55.637Z,70.00
2022-12-28T17:35:23.600Z,69.62
2022-12-28T17:37:50.728Z,68.80
2022-12-28T17:40:17.641Z,69.29
2022-12-28T17:42:44.478Z,68.56
2022-12-28T17:45:12.416Z,68.91
2022-12-28T17:47:39.559Z,68.87
2022-12-28T17:50:07.192Z,69.39
2022-12-28T17:52:33.937Z,68.76
2022-12-28T17:55:00.697Z,69.46
2022-12-28T17:57:27.396Z,70.87
2022-12-28T17:59:54.052Z,69.83
2022-12-28T18:02:21.084Z,69.52
2022-12-28T18:04:48.156Z,69.27
2022-12-28T18:07:14.978Z,69.89
2022-12-28T18:09:41.766Z,69.56
2022-12-28T18:12:08.490Z,70.03
2022-12-28T18:14:35.290Z,70.11
2022-12-28T18:17:02.190Z,68.94
2022-12-28T18:19:29.067Z,69.27
2022-12-28T18:21:55.789Z,69.26
2022-12-28T18:24:22.528Z,69.52
2022-12-28T18:26:49.214Z,70.22
2022-12-28T18:29:16.045Z,69.61
2022-12-28T18:31:42.834Z,70.66
2022-12-28T18:34:09.543Z,70.89
2022-12-28T18:36:36.373Z,69.39
2022-12-28T18:39:04.606Z,70.92
2022-12-28T18:41:34.248Z,69.50
2022-12-28T18:44:02.764Z,70.86
2022-12-28T18:46:29.951Z,71.31
2022-12-28T18:48:56.972Z,69.78
2022-12-28T18:51:23.766Z,70.06
2022-12-28T18:53:50.996Z,70.32
2022-12-28T18:56:20.134Z,70.78
2022-12-28T18:58:55.894Z,70.90
2022-12-28T19:02:05.971Z,69.58
2022-12-28T19:04:12.681Z,69.11
2022-12-28T19:06:40.865Z,70.48
2022-12-28T19:09:09.309Z,70.64
2022-12-28T19:11:36.904Z,68.85
2022-12-28T19:14:05.614Z,68.98
2022-12-28T19:16:32.732Z,69.26
2022-12-28T19:19:00.601Z,69.93
2022-12-28T19:21:35.722Z,70.22
2022-12-28T19:24:10.180Z,69.29
2022-12-28T19:26:36.961Z,69.41
2022-12-28T19:29:04.581Z,69.12
2022-12-28T19:31:31.675Z,69.10
2022-12-28T19:33:58.898Z,69.19
2022-12-28T19:36:26.121Z,68.83
2022-12-28T19:38:54.658Z,68.83
2022-12-28T19:41:21.733Z,68.21
2022-12-28T19:43:48.611Z,68.97
2022-12-28T19:46:18.753Z,68.78
2022-12-28T19:48:46.550Z,68.84
2022-12-28T19:51:14.449Z,68.66
2022-12-28T19:53:41.279Z,68.83
2022-12-28T19:56:12.504Z,68.98
2022-12-28T19:58:39.753Z,68.61
2022-12-28T20:01:15.950Z,68.20
2022-12-28T20:03:43.141Z,68.59
2022-12-28T20:06:13.387Z,68.04
2022-12-28T20:08:40.522Z,68.34
2022-12-28T20:11:07.220Z,68.92
2022-12-28T20:13:34.566Z,68.15
2022-12-28T20:16:01.351Z,67.79
2022-12-28T20:18:28.255Z,67.55
2022-12-28T20:23:48.507Z,68.94
2022-12-28T20:26:15.953Z,68.08
2022-12-28T20:28:42.676Z,68.03
2022-12-28T20:31:13.019Z,67.68
2022-12-28T20:33:40.285Z,68.14
2022-12-28T20:36:10.619Z,67.99
2022-12-28T20:38:37.893Z,68.90
2022-12-28T20:41:44.515Z,68.69
2022-12-28T20:44:14.327Z,68.45
2022-12-28T20:46:44.755Z,68.81
2022-12-28T20:49:12.237Z,68.35
2022-12-28T20:51:38.991Z,68.13
2022-12-28T20:54:05.950Z,68.33
2022-12-28T20:56:32.934Z,68.97
2022-12-28T20:58:59.634Z,68.89
2022-12-28T21:01:26.387Z,69.01
2022-12-28T21:03:53.209Z,68.66
2022-12-28T21:06:20.144Z,68.66
2022-12-28T21:08:47.011Z,69.21
2022-12-28T21:11:14.094Z,68.83
2022-12-28T21:13:44.687Z,68.89
2022-12-28T21:16:13.154Z,68.18
2022-12-28T21:18:40.228Z,68.22
2022-12-28T21:21:14.608Z,68.10
2022-12-28T21:23:41.642Z,67.82
2022-12-28T21:26:13.725Z,68.04
2022-12-28T21:28:40.445Z,68.04
2022-12-28T21:31:07.497Z,68.17
2022-12-28T21:33:34.246Z,68.93
2022-12-28T21:36:06.697Z,67.83
2022-12-28T21:38:37.158Z,68.21
2022-12-28T21:41:06.677Z,67.69
2022-12-28T21:43:33.414Z,67.31
2022-12-28T21:46:09.300Z,67.18
2022-12-28T21:48:36.978Z,66.73
2022-12-28T21:51:29.235Z,67.68
2022-12-28T21:53:56.949Z,66.46
2022-12-28T21:56:23.961Z,67.02
2022-12-28T21:58:50.979Z,66.20
2022-12-28T22:01:36.541Z,67.08
2022-12-28T22:04:23.107Z,66.30
2022-12-28T22:06:49.766Z,66.22
2022-12-28T22:09:35.069Z,66.10
2022-12-28T22:12:20.467Z,66.27
2022-12-28T22:14:47.052Z,66.08
2022-12-28T22:17:14.633Z,65.91
2022-12-28T22:19:41.680Z,66.16
2022-12-28T22:22:08.503Z,66.90
2022-12-28T22:24:35.171Z,66.63
2022-12-28T22:27:01.828Z,67.02
2022-12-28T22:29:28.481Z,66.48
2022-12-28T22:31:55.174Z,67.28
2022-12-28T22:34:21.922Z,67.11
2022-12-28T22:36:48.600Z,67.89
2022-12-28T22:39:15.220Z,67.61
2022-12-28T22:41:41.949Z,68.07
2022-12-28T22:44:09.821Z,68.46
2022-12-28T22:46:36.583Z,68.88
2022-12-28T22:49:03.246Z,67.18
2022-12-28T22:51:29.899Z,66.84
2022-12-28T22:53:56.576Z,68.18
2022-12-28T22:56:23.499Z,67.47
2022-12-28T22:58:50.332Z,67.02
2022-12-28T23:01:19.446Z,66.71
2022-12-28T23:03:47.807Z,68.29
2022-12-28T23:06:18.476Z,67.44
2022-12-28T23:08:46.106Z,67.20
2022-12-28T23:11:34.329Z,67.30
2022-12-28T23:14:20.320Z,67.28
2022-12-28T23:16:48.175Z,68.66
2022-12-28T23:19:33.948Z,68.27
2022-12-28T23:22:21.273Z,67.42
2022-12-28T23:25:06.735Z,67.17
2022-12-28T23:27:43.064Z,68.35
2022-12-28T23:30:19.658Z,67.87
2022-12-28T23:32:51.464Z,68.65
2022-12-28T23:35:19.673Z,69.07
2022-12-28T23:37:46.849Z,69.12
2022-12-28T23:40:16.079Z,68.87
2022-12-28T23:42:43.898Z,68.52
2022-12-28T23:45:13.828Z,67.75
2022-12-28T23:47:42.232Z,69.26
2022-12-28T23:50:09.541Z,69.96
2022-12-28T23:52:36.597Z,69.55
2022-12-28T23:55:03.756Z,69.07
2022-12-28T23:57:30.516Z,69.35
2022-12-28T23:59:57.275Z,69.53
